sensor_id;sensor_type;location;lat;lon;timestamp;P1;durP1;ratioP1;P2;durP2;ratioP2
18190;SDS011;47004;51.366;12.348;2023-11-19T00:00:28;6.57;;;3.60;;
18190;SDS011;47004;51.366;12.348;2023-11-19T00:02:29;7.23;;;4.03;;
18190;SDS011;47004;51.366;12.348;2023-11-19T00:04:32;7.13;;;4.20;;
18190;SDS011;47004;51.366;12.348;2023-11-19T00:06:35;10.07;;;3.40;;
18190;SDS011;47004;51.366;12.348;2023-11-19T00:08:37;4.87;;;3.10;;
18190;SDS011;47004;51.366;12.348;2023-11-19T00:10:39;4.83;;;2.97;;
18190;SDS011;47004;51.366;12.348;2023-11-19T00:12:42;4.47;;;2.60;;
18190;SDS011;47004;51.366;12.348;2023-11-19T00:14:44;4.43;;;2.87;;
18190;SDS011;47004;51.366;12.348;2023-11-19T00:16:46;4.10;;;2.67;;
18190;SDS011;47004;51.366;12.348;2023-11-19T00:18:51;5.93;;;3.00;;
18190;SDS011;47004;51.366;12.348;2023-11-19T00:20:54;4.17;;;2.57;;
18190;SDS011;47004;51.366;12.348;2023-11-19T00:22:56;6.40;;;2.87;;
18190;SDS011;47004;51.366;12.348;2023-11-19T00:24:59;5.57;;;3.10;;
18190;SDS011;47004;51.366;12.348;2023-11-19T00:27:00;3.90;;;2.57;;
18190;SDS011;47004;51.366;12.348;2023-11-19T00:29:02;4.17;;;2.50;;
18190;SDS011;47004;51.366;12.348;2023-11-19T00:31:04;4.47;;;2.80;;
18190;SDS011;47004;51.366;12.348;2023-11-19T00:33:06;4.43;;;2.30;;
18190;SDS011;47004;51.366;12.348;2023-11-19T00:35:08;4.53;;;2.43;;
18190;SDS011;47004;51.366;12.348;2023-11-19T00:37:12;6.27;;;2.80;;
18190;SDS011;47004;51.366;12.348;2023-11-19T00:39:15;3.80;;;2.37;;
18190;SDS011;47004;51.366;12.348;2023-11-19T00:41:16;4.43;;;2.10;;
18190;SDS011;47004;51.366;12.348;2023-11-19T00:43:19;3.93;;;2.23;;
18190;SDS011;47004;51.366;12.348;2023-11-19T00:45:22;4.07;;;2.23;;
18190;SDS011;47004;51.366;12.348;2023-11-19T00:47:24;2.90;;;2.03;;
18190;SDS011;47004;51.366;12.348;2023-11-19T00:49:26;5.73;;;1.87;;
18190;SDS011;47004;51.366;12.348;2023-11-19T00:51:28;3.93;;;2.00;;
18190;SDS011;47004;51.366;12.348;2023-11-19T00:53:32;2.30;;;1.60;;
18190;SDS011;47004;51.366;12.348;2023-11-19T00:55:35;2.50;;;1.80;;
18190;SDS011;47004;51.366;12.348;2023-11-19T00:57:36;1.77;;;1.53;;
18190;SDS011;47004;51.366;12.348;2023-11-19T00:59:41;2.83;;;1.80;;
18190;SDS011;47004;51.366;12.348;2023-11-19T01:01:43;2.27;;;1.63;;
18190;SDS011;47004;51.366;12.348;2023-11-19T01:03:44;3.43;;;1.87;;
18190;SDS011;47004;51.366;12.348;2023-11-19T01:05:46;1.90;;;1.40;;
18190;SDS011;47004;51.366;12.348;2023-11-19T01:07:48;2.60;;;1.50;;
18190;SDS011;47004;51.366;12.348;2023-11-19T01:09:53;1.87;;;1.10;;
18190;SDS011;47004;51.366;12.348;2023-11-19T01:11:56;2.10;;;1.23;;
18190;SDS011;47004;51.366;12.348;2023-11-19T01:13:58;2.37;;;1.30;;
18190;SDS011;47004;51.366;12.348;2023-11-19T01:16:00;3.30;;;1.40;;
18190;SDS011;47004;51.366;12.348;2023-11-19T01:18:02;2.07;;;1.60;;
18190;SDS011;47004;51.366;12.348;2023-11-19T01:20:05;2.53;;;1.77;;
18190;SDS011;47004;51.366;12.348;2023-11-19T01:22:10;1.80;;;1.30;;
18190;SDS011;47004;51.366;12.348;2023-11-19T01:24:12;2.53;;;1.50;;
18190;SDS011;47004;51.366;12.348;2023-11-19T01:26:15;1.70;;;1.27;;
18190;SDS011;47004;51.366;12.348;2023-11-19T01:28:17;2.30;;;1.20;;
18190;SDS011;47004;51.366;12.348;2023-11-19T01:30:19;2.87;;;1.50;;
18190;SDS011;47004;51.366;12.348;2023-11-19T01:32:21;1.63;;;1.23;;
18190;SDS011;47004;51.366;12.348;2023-11-19T01:34:24;1.50;;;1.30;;
18190;SDS011;47004;51.366;12.348;2023-11-19T01:36:26;5.13;;;2.50;;
18190;SDS011;47004;51.366;12.348;2023-11-19T01:38:28;3.90;;;2.00;;
18190;SDS011;47004;51.366;12.348;2023-11-19T01:40:31;1.87;;;1.40;;
18190;SDS011;47004;51.366;12.348;2023-11-19T01:42:37;3.27;;;1.50;;
18190;SDS011;47004;51.366;12.348;2023-11-19T01:44:39;1.73;;;1.17;;
18190;SDS011;47004;51.366;12.348;2023-11-19T01:46:41;1.70;;;1.30;;
18190;SDS011;47004;51.366;12.348;2023-11-19T01:48:45;2.10;;;1.27;;
18190;SDS011;47004;51.366;12.348;2023-11-19T01:50:48;2.40;;;1.63;;
18190;SDS011;47004;51.366;12.348;2023-11-19T01:52:50;1.33;;;1.17;;
18190;SDS011;47004;51.366;12.348;2023-11-19T01:54:53;1.90;;;1.20;;
18190;SDS011;47004;51.366;12.348;2023-11-19T01:56:54;3.00;;;1.40;;
18190;SDS011;47004;51.366;12.348;2023-11-19T01:58:59;1.30;;;1.10;;
18190;SDS011;47004;51.366;12.348;2023-11-19T02:01:02;1.83;;;1.30;;
18190;SDS011;47004;51.366;12.348;2023-11-19T02:03:05;4.47;;;1.30;;
18190;SDS011;47004;51.366;12.348;2023-11-19T02:05:08;1.63;;;1.40;;
18190;SDS011;47004;51.366;12.348;2023-11-19T02:07:10;1.70;;;1.20;;
18190;SDS011;47004;51.366;12.348;2023-11-19T02:09:12;2.47;;;1.33;;
18190;SDS011;47004;51.366;12.348;2023-11-19T02:11:14;3.03;;;1.53;;
18190;SDS011;47004;51.366;12.348;2023-11-19T02:13:16;2.40;;;1.60;;
18190;SDS011;47004;51.366;12.348;2023-11-19T02:15:19;2.20;;;1.53;;
18190;SDS011;47004;51.366;12.348;2023-11-19T02:17:27;4.57;;;1.70;;
18190;SDS011;47004;51.366;12.348;2023-11-19T02:19:32;1.93;;;1.40;;
18190;SDS011;47004;51.366;12.348;2023-11-19T02:21:34;1.80;;;1.47;;
18190;SDS011;47004;51.366;12.348;2023-11-19T02:23:36;2.07;;;1.40;;
18190;SDS011;47004;51.366;12.348;2023-11-19T02:25:38;4.03;;;1.80;;
18190;SDS011;47004;51.366;12.348;2023-11-19T02:27:44;2.73;;;1.70;;
18190;SDS011;47004;51.366;12.348;2023-11-19T02:29:58;2.80;;;1.90;;
18190;SDS011;47004;51.366;12.348;2023-11-19T02:31:59;2.23;;;1.70;;
18190;SDS011;47004;51.366;12.348;2023-11-19T02:34:03;2.60;;;1.80;;
18190;SDS011;47004;51.366;12.348;2023-11-19T02:36:06;2.30;;;1.60;;
18190;SDS011;47004;51.366;12.348;2023-11-19T02:38:09;2.23;;;1.70;;
18190;SDS011;47004;51.366;12.348;2023-11-19T02:40:11;2.40;;;1.70;;
18190;SDS011;47004;51.366;12.348;2023-11-19T02:42:13;3.13;;;1.60;;
18190;SDS011;47004;51.366;12.348;2023-11-19T02:44:16;2.87;;;1.80;;
18190;SDS011;47004;51.366;12.348;2023-11-19T02:46:18;2.70;;;1.83;;
18190;SDS011;47004;51.366;12.348;2023-11-19T02:48:21;3.33;;;2.00;;
18190;SDS011;47004;51.366;12.348;2023-11-19T02:50:22;2.07;;;1.63;;
18190;SDS011;47004;51.366;12.348;2023-11-19T02:52:26;4.53;;;2.00;;
18190;SDS011;47004;51.366;12.348;2023-11-19T02:54:28;2.17;;;1.67;;
18190;SDS011;47004;51.366;12.348;2023-11-19T02:56:30;3.23;;;1.90;;
18190;SDS011;47004;51.366;12.348;2023-11-19T02:58:37;3.07;;;1.87;;
18190;SDS011;47004;51.366;12.348;2023-11-19T03:00:40;2.73;;;1.90;;
18190;SDS011;47004;51.366;12.348;2023-11-19T03:02:49;4.63;;;1.70;;
18190;SDS011;47004;51.366;12.348;2023-11-19T03:04:59;3.97;;;1.83;;
18190;SDS011;47004;51.366;12.348;2023-11-19T03:07:00;2.97;;;1.80;;
18190;SDS011;47004;51.366;12.348;2023-11-19T03:09:02;3.03;;;2.00;;
18190;SDS011;47004;51.366;12.348;2023-11-19T03:11:10;2.50;;;1.90;;
18190;SDS011;47004;51.366;12.348;2023-11-19T03:13:12;3.07;;;2.00;;
18190;SDS011;47004;51.366;12.348;2023-11-19T03:15:15;3.53;;;1.97;;
18190;SDS011;47004;51.366;12.348;2023-11-19T03:17:18;2.60;;;1.90;;
18190;SDS011;47004;51.366;12.348;2023-11-19T03:19:20;2.17;;;1.60;;
18190;SDS011;47004;51.366;12.348;2023-11-19T03:21:26;2.93;;;1.90;;
18190;SDS011;47004;51.366;12.348;2023-11-19T03:23:29;3.03;;;2.00;;
18190;SDS011;47004;51.366;12.348;2023-11-19T03:25:31;2.33;;;1.60;;
18190;SDS011;47004;51.366;12.348;2023-11-19T03:27:34;2.77;;;2.10;;
18190;SDS011;47004;51.366;12.348;2023-11-19T03:29:36;3.73;;;2.17;;
18190;SDS011;47004;51.366;12.348;2023-11-19T03:31:41;2.47;;;1.80;;
18190;SDS011;47004;51.366;12.348;2023-11-19T03:33:44;3.07;;;1.60;;
18190;SDS011;47004;51.366;12.348;2023-11-19T03:35:46;3.23;;;1.90;;
18190;SDS011;47004;51.366;12.348;2023-11-19T03:37:48;2.57;;;1.63;;
18190;SDS011;47004;51.366;12.348;2023-11-19T03:39:49;3.60;;;1.50;;
18190;SDS011;47004;51.366;12.348;2023-11-19T03:41:52;2.10;;;1.77;;
18190;SDS011;47004;51.366;12.348;2023-11-19T03:43:54;3.07;;;1.50;;
18190;SDS011;47004;51.366;12.348;2023-11-19T03:45:56;2.10;;;1.50;;
18190;SDS011;47004;51.366;12.348;2023-11-19T03:47:58;2.47;;;1.30;;
18190;SDS011;47004;51.366;12.348;2023-11-19T03:50:01;2.17;;;1.67;;
18190;SDS011;47004;51.366;12.348;2023-11-19T03:52:03;2.53;;;1.57;;
18190;SDS011;47004;51.366;12.348;2023-11-19T03:54:06;1.80;;;1.57;;
18190;SDS011;47004;51.366;12.348;2023-11-19T03:56:08;1.87;;;1.50;;
18190;SDS011;47004;51.366;12.348;2023-11-19T03:58:09;2.97;;;1.60;;
18190;SDS011;47004;51.366;12.348;2023-11-19T04:00:12;3.40;;;1.67;;
18190;SDS011;47004;51.366;12.348;2023-11-19T04:02:15;2.03;;;1.50;;
18190;SDS011;47004;51.366;12.348;2023-11-19T04:04:17;2.70;;;1.60;;
18190;SDS011;47004;51.366;12.348;2023-11-19T04:06:20;2.77;;;1.80;;
18190;SDS011;47004;51.366;12.348;2023-11-19T04:08:22;4.30;;;1.90;;
18190;SDS011;47004;51.366;12.348;2023-11-19T04:10:24;4.53;;;1.70;;
18190;SDS011;47004;51.366;12.348;2023-11-19T04:12:27;1.53;;;1.30;;
18190;SDS011;47004;51.366;12.348;2023-11-19T04:14:32;2.13;;;1.47;;
18190;SDS011;47004;51.366;12.348;2023-11-19T04:16:34;1.87;;;1.57;;
18190;SDS011;47004;51.366;12.348;2023-11-19T04:18:36;2.93;;;1.47;;
18190;SDS011;47004;51.366;12.348;2023-11-19T04:20:37;3.80;;;1.23;;
18190;SDS011;47004;51.366;12.348;2023-11-19T04:22:41;1.83;;;1.27;;
18190;SDS011;47004;51.366;12.348;2023-11-19T04:24:43;2.93;;;1.23;;
18190;SDS011;47004;51.366;12.348;2023-11-19T04:26:45;3.63;;;1.20;;
18190;SDS011;47004;51.366;12.348;2023-11-19T04:28:47;2.60;;;1.20;;
18190;SDS011;47004;51.366;12.348;2023-11-19T04:30:50;1.93;;;1.10;;
18190;SDS011;47004;51.366;12.348;2023-11-19T04:32:52;2.17;;;1.10;;
18190;SDS011;47004;51.366;12.348;2023-11-19T04:34:54;2.10;;;1.10;;
18190;SDS011;47004;51.366;12.348;2023-11-19T04:36:56;1.47;;;0.87;;
18190;SDS011;47004;51.366;12.348;2023-11-19T04:39:00;3.00;;;1.17;;
18190;SDS011;47004;51.366;12.348;2023-11-19T04:41:02;1.97;;;0.90;;
18190;SDS011;47004;51.366;12.348;2023-11-19T04:43:05;1.73;;;0.90;;
18190;SDS011;47004;51.366;12.348;2023-11-19T04:45:07;1.63;;;1.30;;
18190;SDS011;47004;51.366;12.348;2023-11-19T04:47:10;1.63;;;1.03;;
18190;SDS011;47004;51.366;12.348;2023-11-19T04:49:12;1.60;;;0.90;;
18190;SDS011;47004;51.366;12.348;2023-11-19T04:51:14;3.97;;;1.10;;
18190;SDS011;47004;51.366;12.348;2023-11-19T04:53:17;1.17;;;0.80;;
18190;SDS011;47004;51.366;12.348;2023-11-19T04:55:19;2.33;;;0.90;;
18190;SDS011;47004;51.366;12.348;2023-11-19T04:57:21;1.47;;;0.90;;
18190;SDS011;47004;51.366;12.348;2023-11-19T04:59:23;1.13;;;0.73;;
18190;SDS011;47004;51.366;12.348;2023-11-19T05:01:25;0.90;;;0.80;;
18190;SDS011;47004;51.366;12.348;2023-11-19T05:03:27;2.67;;;1.00;;
18190;SDS011;47004;51.366;12.348;2023-11-19T05:05:29;3.20;;;0.90;;
18190;SDS011;47004;51.366;12.348;2023-11-19T05:07:31;1.00;;;0.70;;
18190;SDS011;47004;51.366;12.348;2023-11-19T05:09:33;2.60;;;0.90;;
18190;SDS011;47004;51.366;12.348;2023-11-19T05:11:36;1.60;;;0.90;;
18190;SDS011;47004;51.366;12.348;2023-11-19T05:13:38;1.63;;;0.90;;
18190;SDS011;47004;51.366;12.348;2023-11-19T05:15:40;1.03;;;0.87;;
18190;SDS011;47004;51.366;12.348;2023-11-19T05:17:42;1.27;;;0.83;;
18190;SDS011;47004;51.366;12.348;2023-11-19T05:19:43;1.33;;;0.90;;
18190;SDS011;47004;51.366;12.348;2023-11-19T05:21:45;1.03;;;0.93;;
18190;SDS011;47004;51.366;12.348;2023-11-19T05:23:47;2.53;;;0.90;;
18190;SDS011;47004;51.366;12.348;2023-11-19T05:25:49;1.37;;;0.90;;
18190;SDS011;47004;51.366;12.348;2023-11-19T05:27:52;1.43;;;1.07;;
18190;SDS011;47004;51.366;12.348;2023-11-19T05:29:54;1.33;;;0.87;;
18190;SDS011;47004;51.366;12.348;2023-11-19T05:31:56;2.20;;;1.00;;
18190;SDS011;47004;51.366;12.348;2023-11-19T05:33:58;2.07;;;1.00;;
18190;SDS011;47004;51.366;12.348;2023-11-19T05:35:59;0.80;;;0.80;;
18190;SDS011;47004;51.366;12.348;2023-11-19T05:38:03;6.00;;;1.97;;
18190;SDS011;47004;51.366;12.348;2023-11-19T05:40:05;2.03;;;0.90;;
18190;SDS011;47004;51.366;12.348;2023-11-19T05:42:14;1.23;;;1.00;;
18190;SDS011;47004;51.366;12.348;2023-11-19T05:44:17;2.70;;;0.70;;
18190;SDS011;47004;51.366;12.348;2023-11-19T05:46:19;1.67;;;0.87;;
18190;SDS011;47004;51.366;12.348;2023-11-19T05:48:21;1.83;;;0.90;;
18190;SDS011;47004;51.366;12.348;2023-11-19T05:50:23;1.93;;;0.90;;
18190;SDS011;47004;51.366;12.348;2023-11-19T05:52:25;1.50;;;0.80;;
18190;SDS011;47004;51.366;12.348;2023-11-19T05:54:28;1.13;;;0.83;;
18190;SDS011;47004;51.366;12.348;2023-11-19T05:56:31;1.77;;;1.07;;
18190;SDS011;47004;51.366;12.348;2023-11-19T05:58:33;1.37;;;1.00;;
18190;SDS011;47004;51.366;12.348;2023-11-19T06:00:37;3.03;;;1.17;;
18190;SDS011;47004;51.366;12.348;2023-11-19T06:02:39;2.20;;;1.20;;
18190;SDS011;47004;51.366;12.348;2023-11-19T06:04:41;1.57;;;0.90;;
18190;SDS011;47004;51.366;12.348;2023-11-19T06:06:44;1.20;;;0.80;;
18190;SDS011;47004;51.366;12.348;2023-11-19T06:08:55;1.30;;;0.90;;
18190;SDS011;47004;51.366;12.348;2023-11-19T06:10:57;2.07;;;0.90;;
18190;SDS011;47004;51.366;12.348;2023-11-19T06:13:01;2.73;;;0.70;;
18190;SDS011;47004;51.366;12.348;2023-11-19T06:15:05;3.70;;;0.70;;
18190;SDS011;47004;51.366;12.348;2023-11-19T06:17:10;1.63;;;0.70;;
18190;SDS011;47004;51.366;12.348;2023-11-19T06:19:12;0.70;;;0.70;;
18190;SDS011;47004;51.366;12.348;2023-11-19T06:21:14;1.17;;;0.60;;
18190;SDS011;47004;51.366;12.348;2023-11-19T06:23:15;1.20;;;0.50;;
18190;SDS011;47004;51.366;12.348;2023-11-19T06:25:17;0.87;;;0.50;;
18190;SDS011;47004;51.366;12.348;2023-11-19T06:27:19;0.80;;;0.60;;
18190;SDS011;47004;51.366;12.348;2023-11-19T06:29:21;1.20;;;0.50;;
18190;SDS011;47004;51.366;12.348;2023-11-19T06:31:23;1.20;;;0.50;;
18190;SDS011;47004;51.366;12.348;2023-11-19T06:33:26;1.87;;;0.67;;
18190;SDS011;47004;51.366;12.348;2023-11-19T06:35:27;0.67;;;0.53;;
18190;SDS011;47004;51.366;12.348;2023-11-19T06:37:38;0.53;;;0.50;;
18190;SDS011;47004;51.366;12.348;2023-11-19T06:39:40;0.60;;;0.50;;
18190;SDS011;47004;51.366;12.348;2023-11-19T06:41:44;2.67;;;0.60;;
18190;SDS011;47004;51.366;12.348;2023-11-19T06:43:46;1.60;;;0.50;;
18190;SDS011;47004;51.366;12.348;2023-11-19T06:45:49;1.23;;;0.50;;
18190;SDS011;47004;51.366;12.348;2023-11-19T06:47:50;2.00;;;0.50;;
18190;SDS011;47004;51.366;12.348;2023-11-19T06:49:54;0.60;;;0.50;;
18190;SDS011;47004;51.366;12.348;2023-11-19T06:51:56;2.47;;;0.67;;
18190;SDS011;47004;51.366;12.348;2023-11-19T06:53:57;0.50;;;0.50;;
18190;SDS011;47004;51.366;12.348;2023-11-19T06:55:59;0.50;;;0.50;;
18190;SDS011;47004;51.366;12.348;2023-11-19T06:58:03;0.70;;;0.60;;
18190;SDS011;47004;51.366;12.348;2023-11-19T07:00:05;2.10;;;0.90;;
18190;SDS011;47004;51.366;12.348;2023-11-19T07:02:08;0.90;;;0.70;;
18190;SDS011;47004;51.366;12.348;2023-11-19T07:04:10;2.43;;;0.80;;
18190;SDS011;47004;51.366;12.348;2023-11-19T07:06:14;1.10;;;0.80;;
18190;SDS011;47004;51.366;12.348;2023-11-19T07:08:16;2.27;;;0.80;;
18190;SDS011;47004;51.366;12.348;2023-11-19T07:10:18;0.80;;;0.57;;
18190;SDS011;47004;51.366;12.348;2023-11-19T07:12:20;2.30;;;1.00;;
18190;SDS011;47004;51.366;12.348;2023-11-19T07:14:21;1.40;;;0.70;;
18190;SDS011;47004;51.366;12.348;2023-11-19T07:16:23;2.07;;;0.60;;
18190;SDS011;47004;51.366;12.348;2023-11-19T07:18:25;1.23;;;0.70;;
18190;SDS011;47004;51.366;12.348;2023-11-19T07:20:27;0.83;;;0.63;;
18190;SDS011;47004;51.366;12.348;2023-11-19T07:22:31;1.93;;;0.70;;
18190;SDS011;47004;51.366;12.348;2023-11-19T07:24:33;1.20;;;0.70;;
18190;SDS011;47004;51.366;12.348;2023-11-19T07:26:35;1.70;;;0.87;;
18190;SDS011;47004;51.366;12.348;2023-11-19T07:28:37;0.87;;;0.80;;
18190;SDS011;47004;51.366;12.348;2023-11-19T07:30:40;1.00;;;0.73;;
18190;SDS011;47004;51.366;12.348;2023-11-19T07:32:44;0.70;;;0.70;;
18190;SDS011;47004;51.366;12.348;2023-11-19T07:34:45;1.37;;;0.80;;
18190;SDS011;47004;51.366;12.348;2023-11-19T07:36:48;1.17;;;0.87;;
18190;SDS011;47004;51.366;12.348;2023-11-19T07:38:50;4.40;;;0.70;;
18190;SDS011;47004;51.366;12.348;2023-11-19T07:40:52;0.97;;;0.70;;
18190;SDS011;47004;51.366;12.348;2023-11-19T07:42:54;1.17;;;0.73;;
18190;SDS011;47004;51.366;12.348;2023-11-19T07:44:56;1.10;;;0.70;;
18190;SDS011;47004;51.366;12.348;2023-11-19T07:46:58;0.63;;;0.63;;
18190;SDS011;47004;51.366;12.348;2023-11-19T07:48:59;1.43;;;0.80;;
18190;SDS011;47004;51.366;12.348;2023-11-19T07:51:03;1.10;;;0.80;;
18190;SDS011;47004;51.366;12.348;2023-11-19T07:53:05;1.20;;;0.70;;
18190;SDS011;47004;51.366;12.348;2023-11-19T07:55:10;1.00;;;0.80;;
18190;SDS011;47004;51.366;12.348;2023-11-19T07:57:12;0.90;;;0.70;;
18190;SDS011;47004;51.366;12.348;2023-11-19T07:59:14;3.70;;;0.90;;
18190;SDS011;47004;51.366;12.348;2023-11-19T08:01:16;0.97;;;0.70;;
18190;SDS011;47004;51.366;12.348;2023-11-19T08:03:18;1.93;;;0.67;;
18190;SDS011;47004;51.366;12.348;2023-11-19T08:05:19;0.97;;;0.70;;
18190;SDS011;47004;51.366;12.348;2023-11-19T08:07:23;3.03;;;1.00;;
18190;SDS011;47004;51.366;12.348;2023-11-19T08:09:25;1.30;;;0.80;;
18190;SDS011;47004;51.366;12.348;2023-11-19T08:11:29;1.50;;;1.17;;
18190;SDS011;47004;51.366;12.348;2023-11-19T08:13:31;2.30;;;1.30;;
18190;SDS011;47004;51.366;12.348;2023-11-19T08:15:33;1.37;;;1.10;;
18190;SDS011;47004;51.366;12.348;2023-11-19T08:17:35;1.63;;;0.90;;
18190;SDS011;47004;51.366;12.348;2023-11-19T08:19:36;1.70;;;0.90;;
18190;SDS011;47004;51.366;12.348;2023-11-19T08:21:38;3.23;;;1.57;;
18190;SDS011;47004;51.366;12.348;2023-11-19T08:23:40;5.70;;;1.57;;
18190;SDS011;47004;51.366;12.348;2023-11-19T08:25:41;3.57;;;1.00;;
18190;SDS011;47004;51.366;12.348;2023-11-19T08:27:45;3.37;;;0.80;;
18190;SDS011;47004;51.366;12.348;2023-11-19T08:29:47;2.90;;;1.00;;
18190;SDS011;47004;51.366;12.348;2023-11-19T08:31:49;2.37;;;0.90;;
18190;SDS011;47004;51.366;12.348;2023-11-19T08:33:51;0.90;;;0.87;;
18190;SDS011;47004;51.366;12.348;2023-11-19T08:35:53;2.17;;;1.00;;
18190;SDS011;47004;51.366;12.348;2023-11-19T08:37:55;2.37;;;0.90;;
18190;SDS011;47004;51.366;12.348;2023-11-19T08:39:57;3.13;;;1.07;;
18190;SDS011;47004;51.366;12.348;2023-11-19T08:42:01;1.67;;;1.00;;
18190;SDS011;47004;51.366;12.348;2023-11-19T08:44:04;2.00;;;0.80;;
18190;SDS011;47004;51.366;12.348;2023-11-19T08:46:09;1.43;;;0.80;;
18190;SDS011;47004;51.366;12.348;2023-11-19T08:48:11;2.37;;;1.07;;
18190;SDS011;47004;51.366;12.348;2023-11-19T08:50:13;4.27;;;1.00;;
18190;SDS011;47004;51.366;12.348;2023-11-19T08:52:14;2.20;;;1.10;;
18190;SDS011;47004;51.366;12.348;2023-11-19T08:54:17;2.63;;;1.10;;
18190;SDS011;47004;51.366;12.348;2023-11-19T08:56:20;5.43;;;1.33;;
18190;SDS011;47004;51.366;12.348;2023-11-19T08:58:22;3.30;;;1.90;;
18190;SDS011;47004;51.366;12.348;2023-11-19T09:00:25;8.57;;;1.63;;
18190;SDS011;47004;51.366;12.348;2023-11-19T09:02:27;3.70;;;1.47;;
18190;SDS011;47004;51.366;12.348;2023-11-19T09:04:29;3.13;;;1.53;;
18190;SDS011;47004;51.366;12.348;2023-11-19T09:06:31;4.93;;;1.70;;
18190;SDS011;47004;51.366;12.348;2023-11-19T09:08:32;6.70;;;1.77;;
18190;SDS011;47004;51.366;12.348;2023-11-19T09:10:34;3.07;;;1.37;;
18190;SDS011;47004;51.366;12.348;2023-11-19T09:12:36;2.87;;;1.10;;
18190;SDS011;47004;51.366;12.348;2023-11-19T09:14:38;4.00;;;1.30;;
18190;SDS011;47004;51.366;12.348;2023-11-19T09:16:41;4.30;;;1.13;;
18190;SDS011;47004;51.366;12.348;2023-11-19T09:18:43;2.87;;;1.20;;
18190;SDS011;47004;51.366;12.348;2023-11-19T09:20:45;5.37;;;1.40;;
18190;SDS011;47004;51.366;12.348;2023-11-19T09:22:47;2.33;;;1.40;;
18190;SDS011;47004;51.366;12.348;2023-11-19T09:24:49;3.03;;;1.20;;
18190;SDS011;47004;51.366;12.348;2023-11-19T09:26:50;4.13;;;1.30;;
18190;SDS011;47004;51.366;12.348;2023-11-19T09:28:51;5.77;;;1.37;;
18190;SDS011;47004;51.366;12.348;2023-11-19T09:30:53;2.60;;;1.10;;
18190;SDS011;47004;51.366;12.348;2023-11-19T09:32:57;4.23;;;1.73;;
18190;SDS011;47004;51.366;12.348;2023-11-19T09:34:59;7.13;;;2.60;;
18190;SDS011;47004;51.366;12.348;2023-11-19T09:37:03;4.67;;;1.93;;
18190;SDS011;47004;51.366;12.348;2023-11-19T09:39:05;3.50;;;2.20;;
18190;SDS011;47004;51.366;12.348;2023-11-19T09:41:09;6.20;;;1.97;;
18190;SDS011;47004;51.366;12.348;2023-11-19T09:43:13;9.27;;;3.37;;
18190;SDS011;47004;51.366;12.348;2023-11-19T09:45:16;5.90;;;2.03;;
18190;SDS011;47004;51.366;12.348;2023-11-19T09:47:19;6.87;;;2.03;;
18190;SDS011;47004;51.366;12.348;2023-11-19T09:49:22;3.17;;;1.57;;
18190;SDS011;47004;51.366;12.348;2023-11-19T09:51:27;4.20;;;1.40;;
18190;SDS011;47004;51.366;12.348;2023-11-19T09:53:29;7.90;;;1.73;;
18190;SDS011;47004;51.366;12.348;2023-11-19T09:55:31;2.67;;;1.30;;
18190;SDS011;47004;51.366;12.348;2023-11-19T09:57:33;2.37;;;1.20;;
18190;SDS011;47004;51.366;12.348;2023-11-19T09:59:37;3.60;;;1.80;;
18190;SDS011;47004;51.366;12.348;2023-11-19T10:01:40;3.03;;;1.27;;
18190;SDS011;47004;51.366;12.348;2023-11-19T10:03:42;2.97;;;1.50;;
18190;SDS011;47004;51.366;12.348;2023-11-19T10:05:49;8.90;;;1.87;;
18190;SDS011;47004;51.366;12.348;2023-11-19T10:07:50;8.50;;;1.80;;
18190;SDS011;47004;51.366;12.348;2023-11-19T10:09:52;7.33;;;1.87;;
18190;SDS011;47004;51.366;12.348;2023-11-19T10:11:54;4.17;;;1.90;;
18190;SDS011;47004;51.366;12.348;2023-11-19T10:13:56;4.73;;;1.80;;
18190;SDS011;47004;51.366;12.348;2023-11-19T10:15:58;8.13;;;1.93;;
18190;SDS011;47004;51.366;12.348;2023-11-19T10:18:04;5.53;;;1.63;;
18190;SDS011;47004;51.366;12.348;2023-11-19T10:20:07;4.57;;;1.90;;
18190;SDS011;47004;51.366;12.348;2023-11-19T10:22:12;3.90;;;1.80;;
18190;SDS011;47004;51.366;12.348;2023-11-19T10:24:16;4.80;;;1.43;;
18190;SDS011;47004;51.366;12.348;2023-11-19T10:26:33;5.10;;;1.60;;
18190;SDS011;47004;51.366;12.348;2023-11-19T10:28:39;3.43;;;1.43;;
18190;SDS011;47004;51.366;12.348;2023-11-19T10:30:43;6.10;;;1.60;;
18190;SDS011;47004;51.366;12.348;2023-11-19T10:32:45;3.17;;;1.50;;
18190;SDS011;47004;51.366;12.348;2023-11-19T10:34:47;2.37;;;1.30;;
18190;SDS011;47004;51.366;12.348;2023-11-19T10:36:50;6.00;;;1.73;;
18190;SDS011;47004;51.366;12.348;2023-11-19T10:38:53;6.80;;;1.83;;
18190;SDS011;47004;51.366;12.348;2023-11-19T10:40:56;5.07;;;1.83;;
18190;SDS011;47004;51.366;12.348;2023-11-19T10:43:01;4.83;;;1.40;;
18190;SDS011;47004;51.366;12.348;2023-11-19T10:45:03;4.03;;;1.70;;
18190;SDS011;47004;51.366;12.348;2023-11-19T10:47:06;8.23;;;1.60;;
18190;SDS011;47004;51.366;12.348;2023-11-19T10:49:10;6.90;;;2.03;;
18190;SDS011;47004;51.366;12.348;2023-11-19T10:51:12;4.70;;;1.90;;
18190;SDS011;47004;51.366;12.348;2023-11-19T10:53:21;6.20;;;2.03;;
18190;SDS011;47004;51.366;12.348;2023-11-19T10:55:28;10.97;;;2.00;;
18190;SDS011;47004;51.366;12.348;2023-11-19T10:57:31;7.23;;;2.23;;
18190;SDS011;47004;51.366;12.348;2023-11-19T10:59:37;7.80;;;1.70;;
18190;SDS011;47004;51.366;12.348;2023-11-19T11:01:43;4.27;;;1.60;;
18190;SDS011;47004;51.366;12.348;2023-11-19T11:03:46;8.73;;;1.50;;
18190;SDS011;47004;51.366;12.348;2023-11-19T11:05:51;9.67;;;2.20;;
18190;SDS011;47004;51.366;12.348;2023-11-19T11:07:55;8.23;;;1.80;;
18190;SDS011;47004;51.366;12.348;2023-11-19T11:09:57;8.37;;;1.80;;
18190;SDS011;47004;51.366;12.348;2023-11-19T11:12:01;12.33;;;1.60;;
18190;SDS011;47004;51.366;12.348;2023-11-19T11:14:05;7.87;;;1.60;;
18190;SDS011;47004;51.366;12.348;2023-11-19T11:16:07;9.50;;;2.57;;
18190;SDS011;47004;51.366;12.348;2023-11-19T11:18:11;5.17;;;2.13;;
18190;SDS011;47004;51.366;12.348;2023-11-19T11:20:13;8.07;;;2.40;;
18190;SDS011;47004;51.366;12.348;2023-11-19T11:22:15;11.37;;;2.40;;
18190;SDS011;47004;51.366;12.348;2023-11-19T11:24:25;8.27;;;2.10;;
18190;SDS011;47004;51.366;12.348;2023-11-19T11:26:42;6.87;;;2.73;;
18190;SDS011;47004;51.366;12.348;2023-11-19T11:29:09;9.13;;;1.83;;
18190;SDS011;47004;51.366;12.348;2023-11-19T11:31:20;9.80;;;2.20;;
18190;SDS011;47004;51.366;12.348;2023-11-19T11:33:37;10.57;;;1.90;;
18190;SDS011;47004;51.366;12.348;2023-11-19T11:35:59;6.27;;;2.20;;
18190;SDS011;47004;51.366;12.348;2023-11-19T11:38:12;9.87;;;2.17;;
18190;SDS011;47004;51.366;12.348;2023-11-19T11:40:16;6.90;;;1.80;;
18190;SDS011;47004;51.366;12.348;2023-11-19T11:42:34;6.60;;;2.10;;
18190;SDS011;47004;51.366;12.348;2023-11-19T11:47:02;10.90;;;2.23;;
18190;SDS011;47004;51.366;12.348;2023-11-19T11:49:04;12.10;;;2.57;;
18190;SDS011;47004;51.366;12.348;2023-11-19T11:51:08;9.73;;;2.07;;
18190;SDS011;47004;51.366;12.348;2023-11-19T11:53:13;10.83;;;3.27;;
18190;SDS011;47004;51.366;12.348;2023-11-19T11:55:17;14.00;;;3.03;;
18190;SDS011;47004;51.366;12.348;2023-11-19T11:57:19;11.47;;;3.10;;
18190;SDS011;47004;51.366;12.348;2023-11-19T11:59:23;15.97;;;3.97;;
18190;SDS011;47004;51.366;12.348;2023-11-19T12:01:25;14.27;;;3.03;;
18190;SDS011;47004;51.366;12.348;2023-11-19T12:03:30;15.00;;;3.93;;
18190;SDS011;47004;51.366;12.348;2023-11-19T12:05:33;14.20;;;3.73;;
18190;SDS011;47004;51.366;12.348;2023-11-19T12:07:38;13.60;;;3.60;;
18190;SDS011;47004;51.366;12.348;2023-11-19T12:09:40;16.23;;;3.10;;
18190;SDS011;47004;51.366;12.348;2023-11-19T12:11:46;16.83;;;3.63;;